Saffet Bey — TCUZ — position and weather

sailwx.info

Track history (hours):
 
Tides and Currents Weather Stations Pressure Air Temp Water Temp Dewpoint Dewpoint Depression Visibility Wind Speed Wind Dir Waves Ship Positions

Saffet Bey

Last reported at 2017-Jun-26 03:05 UTC. Time now 2017-Jun-26 14:04 UTC.
Position N 37°14' E 024°48'.

Length 164 m; draft 7 m.

Type: Ship (hazmat cat A). MMSI: 271000419.

Date/timePositionNaut miles runAvg speedWind from/ knotsBaromVisibWave heightAir tempDewpointWater temp
2017-Jun-26 03:05N 37°14' E 024°48'114.5
2017-Jun-26 03:01N 37°15' E 024°49'714.6
2017-Jun-26 02:31N 37°19' E 024°56'814.8
2017-Jun-26 01:59N 37°24' E 025°04'714.6
2017-Jun-26 01:31N 37°28' E 025°11'714.9
2017-Jun-26 01:00N 37°33' E 025°18'815.0
2017-Jun-26 00:30N 37°38' E 025°25'714.8
2017-Jun-26 00:01N 37°43' E 025°31'714.7
2017-Jun-25 23:31N 37°48' E 025°38'3 0.2
2017-Jun-25 08:52N 37°51' E 025°41'514.3
2017-Jun-25 08:30N 37°47' E 025°37'714.5
2017-Jun-25 08:00N 37°42' E 025°30'714.1
2017-Jun-25 07:30N 37°37' E 025°24'713.5
2017-Jun-25 07:00N 37°32' E 025°18'713.8
2017-Jun-25 06:31N 37°28' E 025°11'714.1
2017-Jun-25 06:00N 37°24' E 025°04'714.3
2017-Jun-25 05:31N 37°19' E 024°57'714.4
2017-Jun-25 05:01N 37°15' E 024°50'33912.1
2017-Jun-24 00:56N 40°14' E 018°41'11315.3
2017-Jun-23 17:35N 41°36' E 016°59'115.0
2017-Jun-23 17:30N 41°37' E 016°58'4515.2
2017-Jun-23 14:34N 42°09' E 016°16'1114.1
2017-Jun-23 13:48N 42°16' E 016°05'414.9
2017-Jun-23 13:30N 42°19' E 016°01'815.0
2017-Jun-23 12:59N 42°25' E 015°54'715.0
2017-Jun-23 12:30N 42°31' E 015°48'915.1
2017-Jun-23 11:56N 42°37' E 015°41'715.3
2017-Jun-23 11:30N 42°42' E 015°35'815.3
2017-Jun-23 11:00N 42°48' E 015°28'815.2
2017-Jun-23 10:30N 42°54' E 015°22'815.3
2017-Jun-23 10:00N 43°00' E 015°15'815.0
2017-Jun-23 09:29N 43°07' E 015°09'714.9
2017-Jun-23 09:01N 43°12' E 015°03'814.8
2017-Jun-23 08:29N 43°18' E 014°56'815.1
2017-Jun-23 07:56N 43°25' E 014°49'615.1
2017-Jun-23 07:30N 43°30' E 014°43'814.9
2017-Jun-23 06:59N 43°36' E 014°37'815.1
2017-Jun-23 06:29N 43°42' E 014°30'815.2
2017-Jun-23 05:57N 43°48' E 014°23'715.0
2017-Jun-23 05:30N 43°53' E 014°17'715.0
2017-Jun-23 05:00N 43°59' E 014°11'715.0
2017-Jun-23 04:30N 44°05' E 014°05'714.8
2017-Jun-23 04:00N 44°11' E 013°59'714.7
2017-Jun-23 03:30N 44°17' E 013°53'714.8
2017-Jun-23 03:00N 44°23' E 013°48'714.8
2017-Jun-23 02:31N 44°29' E 013°42'714.8
2017-Jun-23 02:01N 44°35' E 013°35'714.8
2017-Jun-23 01:30N 44°42' E 013°30'714.9
2017-Jun-23 01:00N 44°48' E 013°24'715.0
2017-Jun-23 00:30N 44°54' E 013°18'815.1
2017-Jun-23 00:00N 44°60' E 013°11'715.0
2017-Jun-22 23:30N 45°07' E 013°06'815.1
2017-Jun-22 23:00N 45°14' E 013°03'815.3
2017-Jun-22 22:30N 45°21' E 013°01'714.9
2017-Jun-22 22:00N 45°27' E 013°08'715.0
2017-Jun-22 21:31N 45°32' E 013°16'714.7
2017-Jun-22 21:00N 45°36' E 013°26'815.0
2017-Jun-22 20:30N 45°39' E 013°35'611.8
2017-Jun-22 20:01N 45°38' E 013°44'1 2.7
2017-Jun-22 19:28N 45°38' E 013°46'0 0.0
2017-Jun-22 18:58N 45°38' E 013°46'0 0.0
2017-Jun-22 18:28N 45°38' E 013°46'0 0.0
2017-Jun-22 17:58N 45°38' E 013°46'0 0.0
2017-Jun-22 17:25N 45°38' E 013°46'0 0.0
2017-Jun-22 16:52N 45°38' E 013°46'0 0.0
2017-Jun-22 16:25N 45°38' E 013°46'0 0.0
2017-Jun-22 15:58N 45°38' E 013°46'0 0.0
2017-Jun-22 15:25N 45°38' E 013°46'0 0.0
2017-Jun-22 14:58N 45°38' E 013°46'0 0.0
2017-Jun-22 14:25N 45°38' E 013°46'0 0.0
2017-Jun-22 13:28N 45°38' E 013°46'0 0.0
2017-Jun-22 12:58N 45°38' E 013°46'0 0.0
2017-Jun-22 12:28N 45°38' E 013°46'0 0.0
2017-Jun-22 11:58N 45°38' E 013°46'0 0.0
2017-Jun-22 11:22N 45°38' E 013°46'0 0.0
2017-Jun-22 10:55N 45°38' E 013°46'0 0.0
2017-Jun-22 10:28N 45°38' E 013°46'0 0.0
2017-Jun-22 09:58N 45°38' E 013°46'0 0.0
2017-Jun-22 09:28N 45°38' E 013°46'0 0.0
2017-Jun-22 08:58N 45°38' E 013°46'0 0.0
2017-Jun-22 08:25N 45°38' E 013°46'0 0.0
2017-Jun-22 07:55N 45°38' E 013°46'0 0.0
2017-Jun-21 23:37N 45°38' E 013°46'0 0.0
2017-Jun-21 23:28N 45°38' E 013°46'0 0.0
2017-Jun-21 22:55N 45°38' E 013°46'0 0.0
2017-Jun-21 22:25N 45°38' E 013°46'0 0.0
2017-Jun-21 21:58N 45°38' E 013°46'0 0.0
2017-Jun-21 21:28N 45°38' E 013°46'0 0.0
2017-Jun-21 20:58N 45°38' E 013°46'0 0.0
2017-Jun-21 20:28N 45°38' E 013°46'0 0.0
2017-Jun-21 19:55N 45°38' E 013°46'0 0.0
2017-Jun-21 19:22N 45°38' E 013°46'0 0.0
2017-Jun-21 18:52N 45°38' E 013°46'0 0.0
2017-Jun-21 18:31N 45°38' E 013°46'0 0.0
2017-Jun-21 17:58N 45°38' E 013°46'0 0.0
2017-Jun-21 17:25N 45°38' E 013°46'0 0.0
2017-Jun-21 17:00N 45°38' E 013°46'0 0.0
2017-Jun-21 16:27N 45°38' E 013°46'0 0.0
2017-Jun-21 16:00N 45°38' E 013°46'0 0.0
2017-Jun-21 15:27N 45°38' E 013°46'0 0.0
2017-Jun-21 15:01N 45°38' E 013°46'5 5.2
2017-Jun-21 14:01N 45°38' E 013°38'815.7
2017-Jun-21 13:30N 45°34' E 013°28'714.9
2017-Jun-21 13:00N 45°30' E 013°20'714.9
2017-Jun-21 12:30N 45°24' E 013°13'714.5
2017-Jun-21 12:00N 45°17' E 013°13'815.0
2017-Jun-21 11:30N 45°10' E 013°15'715.0
2017-Jun-21 11:00N 45°03' E 013°19'815.1
2017-Jun-21 10:30N 44°56' E 013°24'715.0
2017-Jun-21 10:01N 44°50' E 013°30'815.4
2017-Jun-21 09:30N 44°43' E 013°35'815.3
2017-Jun-21 09:00N 44°37' E 013°41'815.1
2017-Jun-21 08:29N 44°30' E 013°47'715.2
2017-Jun-21 08:00N 44°24' E 013°53'815.3
2017-Jun-21 07:30N 44°17' E 013°59'815.4
2017-Jun-21 06:57N 44°10' E 014°05'715.4
2017-Jun-21 06:30N 44°05' E 014°11'2415.3
2017-Jun-21 04:55N 43°46' E 014°32'615.2
2017-Jun-21 04:30N 43°41' E 014°37'1415.2
2017-Jun-21 03:36N 43°30' E 014°49'315.0
2017-Jun-21 03:23N 43°28' E 014°52'615.0
2017-Jun-21 02:59N 43°23' E 014°58'1114.9
2017-Jun-21 02:16N 43°15' E 015°07'414.9
2017-Jun-21 01:58N 43°12' E 015°11'814.8
2017-Jun-21 01:25N 43°05' E 015°18'714.9
2017-Jun-21 00:58N 43°00' E 015°24'714.9
2017-Jun-21 00:28N 42°55' E 015°30'1915.0
2017-Jun-20 23:10N 42°40' E 015°47'415.2
2017-Jun-20 22:56N 42°37' E 015°50'1115.2
2017-Jun-20 22:15N 42°29' E 015°60'3715.1
2017-Jun-20 19:47N 42°03' E 016°35'514.9
2017-Jun-20 19:29N 41°59' E 016°40'915.0
2017-Jun-20 18:51N 41°53' E 016°49'815.1
2017-Jun-20 18:21N 41°48' E 016°57'715.5
2017-Jun-20 17:52N 41°43' E 017°04'914.7
2017-Jun-20 17:15N 41°37' E 017°14'414.9
2017-Jun-20 16:59N 41°35' E 017°17'814.9
2017-Jun-20 16:26N 41°29' E 017°25'42712.2
2017-Jun-19 05:35N 37°14' E 024°48'115.3
2017-Jun-19 05:30N 37°15' E 024°49'815.5
2017-Jun-19 05:00N 37°20' E 024°57'815.5
2017-Jun-19 04:30N 37°25' E 025°04'815.3
2017-Jun-19 04:00N 37°29' E 025°13'815.3
2017-Jun-19 03:30N 37°34' E 025°20'815.4
2017-Jun-19 03:00N 37°39' E 025°27'815.0
2017-Jun-19 02:30N 37°45' E 025°33'815.1
2017-Jun-19 02:00N 37°50' E 025°40'1 0.1
2017-Jun-18 09:22N 37°51' E 025°41'514.5
2017-Jun-18 09:00N 37°47' E 025°36'714.1
2017-Jun-18 08:30N 37°42' E 025°30'714.0
2017-Jun-18 08:00N 37°37' E 025°24'713.8
2017-Jun-18 07:30N 37°32' E 025°18'713.8
2017-Jun-18 07:00N 37°28' E 025°11'713.9
2017-Jun-18 06:30N 37°24' E 025°04'713.9
2017-Jun-18 06:01N 37°20' E 024°57'714.0
2017-Jun-18 05:31N 37°15' E 024°50'35512.1
2017-Jun-17 00:03N 40°29' E 018°27'216.2
2017-Jun-16 23:55N 40°30' E 018°26'916.1
2017-Jun-16 23:23N 40°36' E 018°18'26414.9
2017-Jun-16 05:42N 43°51' E 014°18'314.4
2017-Jun-16 05:28N 43°54' E 014°15'1114.7
2017-Jun-16 04:43N 44°02' E 014°05'314.7
2017-Jun-16 04:30N 44°05' E 014°02'714.6
2017-Jun-16 04:00N 44°11' E 013°57'914.8
2017-Jun-16 03:25N 44°18' E 013°50'  
Track history (hours):
 
Tides and Currents Weather Stations Pressure Air Temp Water Temp Dewpoint Dewpoint Depression Visibility Wind Speed Wind Dir Waves Ship Positions

Saffet Bey

Last reported at 2017-Jun-26 03:05 UTC. Time now 2017-Jun-26 14:04 UTC.
Position N 37°14' E 024°48'.

Length 164 m; draft 7 m.

Type: Ship (hazmat cat A). MMSI: 271000419.

Date/timePositionNaut miles runAvg speedWind from/ knotsBaromVisibWave heightAir tempDewpointWater temp
2017-Jun-26 03:05N 37°14' E 024°48'114.5
2017-Jun-26 03:01N 37°15' E 024°49'714.6
2017-Jun-26 02:31N 37°19' E 024°56'814.8
2017-Jun-26 01:59N 37°24' E 025°04'714.6
2017-Jun-26 01:31N 37°28' E 025°11'714.9
2017-Jun-26 01:00N 37°33' E 025°18'815.0
2017-Jun-26 00:30N 37°38' E 025°25'714.8
2017-Jun-26 00:01N 37°43' E 025°31'714.7
2017-Jun-25 23:31N 37°48' E 025°38'3 0.2
2017-Jun-25 08:52N 37°51' E 025°41'514.3
2017-Jun-25 08:30N 37°47' E 025°37'714.5
2017-Jun-25 08:00N 37°42' E 025°30'714.1
2017-Jun-25 07:30N 37°37' E 025°24'713.5
2017-Jun-25 07:00N 37°32' E 025°18'713.8
2017-Jun-25 06:31N 37°28' E 025°11'714.1
2017-Jun-25 06:00N 37°24' E 025°04'714.3
2017-Jun-25 05:31N 37°19' E 024°57'714.4
2017-Jun-25 05:01N 37°15' E 024°50'33912.1
2017-Jun-24 00:56N 40°14' E 018°41'11315.3
2017-Jun-23 17:35N 41°36' E 016°59'115.0
2017-Jun-23 17:30N 41°37' E 016°58'4515.2
2017-Jun-23 14:34N 42°09' E 016°16'1114.1
2017-Jun-23 13:48N 42°16' E 016°05'414.9
2017-Jun-23 13:30N 42°19' E 016°01'815.0
2017-Jun-23 12:59N 42°25' E 015°54'715.0
2017-Jun-23 12:30N 42°31' E 015°48'915.1
2017-Jun-23 11:56N 42°37' E 015°41'715.3
2017-Jun-23 11:30N 42°42' E 015°35'815.3
2017-Jun-23 11:00N 42°48' E 015°28'815.2
2017-Jun-23 10:30N 42°54' E 015°22'815.3
2017-Jun-23 10:00N 43°00' E 015°15'815.0
2017-Jun-23 09:29N 43°07' E 015°09'714.9
2017-Jun-23 09:01N 43°12' E 015°03'814.8
2017-Jun-23 08:29N 43°18' E 014°56'815.1
2017-Jun-23 07:56N 43°25' E 014°49'615.1
2017-Jun-23 07:30N 43°30' E 014°43'814.9
2017-Jun-23 06:59N 43°36' E 014°37'815.1
2017-Jun-23 06:29N 43°42' E 014°30'815.2
2017-Jun-23 05:57N 43°48' E 014°23'715.0
2017-Jun-23 05:30N 43°53' E 014°17'715.0
2017-Jun-23 05:00N 43°59' E 014°11'715.0
2017-Jun-23 04:30N 44°05' E 014°05'714.8
2017-Jun-23 04:00N 44°11' E 013°59'714.7
2017-Jun-23 03:30N 44°17' E 013°53'714.8
2017-Jun-23 03:00N 44°23' E 013°48'714.8
2017-Jun-23 02:31N 44°29' E 013°42'714.8
2017-Jun-23 02:01N 44°35' E 013°35'714.8
2017-Jun-23 01:30N 44°42' E 013°30'714.9
2017-Jun-23 01:00N 44°48' E 013°24'715.0
2017-Jun-23 00:30N 44°54' E 013°18'815.1
2017-Jun-23 00:00N 44°60' E 013°11'715.0
2017-Jun-22 23:30N 45°07' E 013°06'815.1
2017-Jun-22 23:00N 45°14' E 013°03'815.3
2017-Jun-22 22:30N 45°21' E 013°01'714.9
2017-Jun-22 22:00N 45°27' E 013°08'715.0
2017-Jun-22 21:31N 45°32' E 013°16'714.7
2017-Jun-22 21:00N 45°36' E 013°26'815.0
2017-Jun-22 20:30N 45°39' E 013°35'611.8
2017-Jun-22 20:01N 45°38' E 013°44'1 2.7
2017-Jun-22 19:28N 45°38' E 013°46'0 0.0
2017-Jun-22 18:58N 45°38' E 013°46'0 0.0
2017-Jun-22 18:28N 45°38' E 013°46'0 0.0
2017-Jun-22 17:58N 45°38' E 013°46'0 0.0
2017-Jun-22 17:25N 45°38' E 013°46'0 0.0
2017-Jun-22 16:52N 45°38' E 013°46'0 0.0
2017-Jun-22 16:25N 45°38' E 013°46'0 0.0
2017-Jun-22 15:58N 45°38' E 013°46'0 0.0
2017-Jun-22 15:25N 45°38' E 013°46'0 0.0
2017-Jun-22 14:58N 45°38' E 013°46'0 0.0
2017-Jun-22 14:25N 45°38' E 013°46'0 0.0
2017-Jun-22 13:28N 45°38' E 013°46'0 0.0
2017-Jun-22 12:58N 45°38' E 013°46'0 0.0
2017-Jun-22 12:28N 45°38' E 013°46'0 0.0
2017-Jun-22 11:58N 45°38' E 013°46'0 0.0
2017-Jun-22 11:22N 45°38' E 013°46'0 0.0
2017-Jun-22 10:55N 45°38' E 013°46'0 0.0
2017-Jun-22 10:28N 45°38' E 013°46'0 0.0
2017-Jun-22 09:58N 45°38' E 013°46'0 0.0
2017-Jun-22 09:28N 45°38' E 013°46'0 0.0
2017-Jun-22 08:58N 45°38' E 013°46'0 0.0
2017-Jun-22 08:25N 45°38' E 013°46'0 0.0
2017-Jun-22 07:55N 45°38' E 013°46'0 0.0
2017-Jun-21 23:37N 45°38' E 013°46'0 0.0
2017-Jun-21 23:28N 45°38' E 013°46'0 0.0
2017-Jun-21 22:55N 45°38' E 013°46'0 0.0
2017-Jun-21 22:25N 45°38' E 013°46'0 0.0
2017-Jun-21 21:58N 45°38' E 013°46'0 0.0
2017-Jun-21 21:28N 45°38' E 013°46'0 0.0
2017-Jun-21 20:58N 45°38' E 013°46'0 0.0
2017-Jun-21 20:28N 45°38' E 013°46'0 0.0
2017-Jun-21 19:55N 45°38' E 013°46'0 0.0
2017-Jun-21 19:22N 45°38' E 013°46'0 0.0
2017-Jun-21 18:52N 45°38' E 013°46'0 0.0
2017-Jun-21 18:31N 45°38' E 013°46'0 0.0
2017-Jun-21 17:58N 45°38' E 013°46'0 0.0
2017-Jun-21 17:25N 45°38' E 013°46'0 0.0
2017-Jun-21 17:00N 45°38' E 013°46'0 0.0
2017-Jun-21 16:27N 45°38' E 013°46'0 0.0
2017-Jun-21 16:00N 45°38' E 013°46'0 0.0
2017-Jun-21 15:27N 45°38' E 013°46'0 0.0
2017-Jun-21 15:01N 45°38' E 013°46'5 5.2
2017-Jun-21 14:01N 45°38' E 013°38'815.7
2017-Jun-21 13:30N 45°34' E 013°28'714.9
2017-Jun-21 13:00N 45°30' E 013°20'714.9
2017-Jun-21 12:30N 45°24' E 013°13'714.5
2017-Jun-21 12:00N 45°17' E 013°13'815.0
2017-Jun-21 11:30N 45°10' E 013°15'715.0
2017-Jun-21 11:00N 45°03' E 013°19'815.1
2017-Jun-21 10:30N 44°56' E 013°24'715.0
2017-Jun-21 10:01N 44°50' E 013°30'815.4
2017-Jun-21 09:30N 44°43' E 013°35'815.3
2017-Jun-21 09:00N 44°37' E 013°41'815.1
2017-Jun-21 08:29N 44°30' E 013°47'715.2
2017-Jun-21 08:00N 44°24' E 013°53'815.3
2017-Jun-21 07:30N 44°17' E 013°59'815.4
2017-Jun-21 06:57N 44°10' E 014°05'715.4
2017-Jun-21 06:30N 44°05' E 014°11'2415.3
2017-Jun-21 04:55N 43°46' E 014°32'615.2
2017-Jun-21 04:30N 43°41' E 014°37'1415.2
2017-Jun-21 03:36N 43°30' E 014°49'315.0
2017-Jun-21 03:23N 43°28' E 014°52'615.0
2017-Jun-21 02:59N 43°23' E 014°58'1114.9
2017-Jun-21 02:16N 43°15' E 015°07'414.9
2017-Jun-21 01:58N 43°12' E 015°11'814.8
2017-Jun-21 01:25N 43°05' E 015°18'714.9
2017-Jun-21 00:58N 43°00' E 015°24'714.9
2017-Jun-21 00:28N 42°55' E 015°30'1915.0
2017-Jun-20 23:10N 42°40' E 015°47'415.2
2017-Jun-20 22:56N 42°37' E 015°50'1115.2
2017-Jun-20 22:15N 42°29' E 015°60'3715.1
2017-Jun-20 19:47N 42°03' E 016°35'514.9
2017-Jun-20 19:29N 41°59' E 016°40'915.0
2017-Jun-20 18:51N 41°53' E 016°49'815.1
2017-Jun-20 18:21N 41°48' E 016°57'715.5
2017-Jun-20 17:52N 41°43' E 017°04'914.7
2017-Jun-20 17:15N 41°37' E 017°14'414.9
2017-Jun-20 16:59N 41°35' E 017°17'814.9
2017-Jun-20 16:26N 41°29' E 017°25'42712.2
2017-Jun-19 05:35N 37°14' E 024°48'115.3
2017-Jun-19 05:30N 37°15' E 024°49'815.5
2017-Jun-19 05:00N 37°20' E 024°57'815.5
2017-Jun-19 04:30N 37°25' E 025°04'815.3
2017-Jun-19 04:00N 37°29' E 025°13'815.3
2017-Jun-19 03:30N 37°34' E 025°20'815.4
2017-Jun-19 03:00N 37°39' E 025°27'815.0
2017-Jun-19 02:30N 37°45' E 025°33'815.1
2017-Jun-19 02:00N 37°50' E 025°40'1 0.1
2017-Jun-18 09:22N 37°51' E 025°41'514.5
2017-Jun-18 09:00N 37°47' E 025°36'714.1
2017-Jun-18 08:30N 37°42' E 025°30'714.0
2017-Jun-18 08:00N 37°37' E 025°24'713.8
2017-Jun-18 07:30N 37°32' E 025°18'713.8
2017-Jun-18 07:00N 37°28' E 025°11'713.9
2017-Jun-18 06:30N 37°24' E 025°04'713.9
2017-Jun-18 06:01N 37°20' E 024°57'714.0
2017-Jun-18 05:31N 37°15' E 024°50'35512.1
2017-Jun-17 00:03N 40°29' E 018°27'216.2
2017-Jun-16 23:55N 40°30' E 018°26'916.1
2017-Jun-16 23:23N 40°36' E 018°18'26414.9
2017-Jun-16 05:42N 43°51' E 014°18'314.4
2017-Jun-16 05:28N 43°54' E 014°15'1114.7
2017-Jun-16 04:43N 44°02' E 014°05'314.7
2017-Jun-16 04:30N 44°05' E 014°02'714.6
2017-Jun-16 04:00N 44°11' E 013°57'914.8
2017-Jun-16 03:25N 44°18' E 013°50'  

Dump ship's entire track history